Time;durP1;ratioP1;P1;durP2;ratioP2;P2;SDS_P1;SDS_P2;PMS_P1;PMS_P2;Temp;Humidity;BMP_temperature;BMP_pressure;BME280_temperature;BME280_humidity;BME280_pressure;Samples;Min_cycle;Max_cycle;Signal;HPM_P1;HPM_P2
2021/07/30 00:00:29;;;;;;;1.50;1.07;;;17.00;99.90;;;;;;5023757;28;20238;-76
2021/07/30 00:02:54;;;;;;;0.70;0.60;;;17.00;99.90;;;;;;5027497;28;20188;-75
2021/07/30 00:05:20;;;;;;;0.80;0.60;;;16.90;99.90;;;;;;5027440;28;20203;-75
2021/07/30 00:07:45;;;;;;;1.07;0.80;;;17.00;99.90;;;;;;5026803;28;20692;-75
2021/07/30 00:10:12;;;;;;;0.80;0.70;;;16.90;99.90;;;;;;5014209;28;20633;-75
2021/07/30 00:12:38;;;;;;;1.07;0.97;;;16.90;99.90;;;;;;5015301;28;20541;-75
2021/07/30 00:15:06;;;;;;;0.80;0.73;;;16.80;99.90;;;;;;5028737;28;20549;-75
2021/07/30 00:17:32;;;;;;;0.80;0.70;;;16.80;99.90;;;;;;5015641;28;20521;-75
2021/07/30 00:19:59;;;;;;;0.70;0.50;;;16.70;99.90;;;;;;5021937;28;20425;-75
2021/07/30 00:22:25;;;;;;;0.80;0.80;;;16.70;99.90;;;;;;5015172;28;20461;-74
2021/07/30 00:24:50;;;;;;;0.87;0.63;;;16.60;99.90;;;;;;5014805;28;20478;-76
2021/07/30 00:27:16;;;;;;;0.80;0.60;;;16.60;99.90;;;;;;5023981;28;20600;-75
2021/07/30 00:29:41;;;;;;;0.90;0.60;;;16.60;99.90;;;;;;5023326;28;20184;-74
2021/07/30 00:32:07;;;;;;;1.33;1.17;;;16.60;99.90;;;;;;5025111;28;20181;-74
2021/07/30 00:34:33;;;;;;;0.90;0.67;;;16.60;99.90;;;;;;5000389;28;20663;-76
2021/07/30 00:36:58;;;;;;;0.73;0.60;;;16.70;99.90;;;;;;5022534;28;20437;-75
2021/07/30 00:39:24;;;;;;;0.80;0.73;;;16.70;99.90;;;;;;5028092;28;20199;-75
2021/07/30 00:41:49;;;;;;;0.70;0.60;;;16.70;99.90;;;;;;5019587;28;20195;-76
2021/07/30 00:44:15;;;;;;;1.00;0.80;;;16.70;99.90;;;;;;5013967;28;20287;-75
2021/07/30 00:46:40;;;;;;;0.80;0.60;;;16.70;99.90;;;;;;5028556;28;20567;-75
2021/07/30 00:49:06;;;;;;;0.90;0.70;;;16.60;99.90;;;;;;5004523;28;20221;-75
2021/07/30 00:51:32;;;;;;;0.70;0.60;;;16.60;99.90;;;;;;5022104;28;20176;-75
2021/07/30 00:53:58;;;;;;;1.07;0.97;;;16.50;99.90;;;;;;5018619;28;20207;-76
2021/07/30 00:56:23;;;;;;;0.80;0.60;;;16.50;99.90;;;;;;5027986;28;20191;-75
2021/07/30 00:58:50;;;;;;;0.70;0.50;;;16.60;99.90;;;;;;5015890;28;20267;-75
2021/07/30 01:01:17;;;;;;;0.70;0.50;;;16.60;99.90;;;;;;5016245;28;20299;-75
2021/07/30 01:03:42;;;;;;;0.80;0.70;;;16.60;99.90;;;;;;5025424;28;20438;-75
2021/07/30 01:06:08;;;;;;;0.97;0.87;;;16.60;99.90;;;;;;5031502;28;21366;-74
2021/07/30 01:08:33;;;;;;;1.00;0.70;;;16.60;99.90;;;;;;5025093;28;20234;-75
2021/07/30 01:10:59;;;;;;;0.80;0.60;;;16.70;99.90;;;;;;5000790;28;20621;-75
2021/07/30 01:13:24;;;;;;;1.00;0.90;;;16.80;99.90;;;;;;5032664;28;20215;-75
2021/07/30 01:15:50;;;;;;;0.70;0.50;;;16.80;99.90;;;;;;5018456;28;20195;-75
2021/07/30 01:18:16;;;;;;;0.70;0.50;;;16.80;99.90;;;;;;5030886;28;20684;-75
2021/07/30 01:20:43;;;;;;;0.70;0.50;;;16.80;99.90;;;;;;5033347;28;20603;-75
2021/07/30 01:23:10;;;;;;;0.70;0.50;;;16.80;99.90;;;;;;5031542;28;20168;-75
2021/07/30 01:25:36;;;;;;;0.70;0.60;;;16.80;99.90;;;;;;5013885;28;20868;-75
2021/07/30 01:28:02;;;;;;;1.20;0.93;;;16.90;99.90;;;;;;5029016;28;20464;-74
2021/07/30 01:30:28;;;;;;;0.80;0.60;;;16.80;99.90;;;;;;5006966;28;20522;-74
2021/07/30 01:32:53;;;;;;;0.90;0.80;;;16.90;99.90;;;;;;5014716;28;20183;-75
2021/07/30 01:35:19;;;;;;;0.90;0.70;;;16.90;99.90;;;;;;5013902;28;20211;-75
2021/07/30 01:37:44;;;;;;;0.80;0.60;;;16.90;99.90;;;;;;5014423;28;20177;-75
2021/07/30 01:40:10;;;;;;;0.70;0.50;;;16.90;99.90;;;;;;5025045;28;20169;-75
2021/07/30 01:42:37;;;;;;;0.80;0.60;;;17.00;99.90;;;;;;5020513;28;20183;-76
2021/07/30 01:45:05;;;;;;;1.67;0.70;;;17.00;99.90;;;;;;5013340;28;20939;-76
2021/07/30 01:47:31;;;;;;;1.53;1.43;;;17.00;99.90;;;;;;5018472;28;20516;-75
2021/07/30 01:49:57;;;;;;;2.97;0.90;;;17.10;99.90;;;;;;5025841;28;20958;-75
2021/07/30 01:52:22;;;;;;;0.80;0.60;;;17.20;99.90;;;;;;5015105;28;20422;-76
2021/07/30 01:54:48;;;;;;;2.07;1.13;;;17.20;99.90;;;;;;5025084;28;20767;-74
2021/07/30 01:57:16;;;;;;;1.33;1.23;;;17.20;99.90;;;;;;4998213;28;20180;-75
2021/07/30 01:59:41;;;;;;;1.77;1.07;;;17.20;99.90;;;;;;5018385;28;20524;-75
2021/07/30 02:02:07;;;;;;;0.80;0.60;;;17.20;99.90;;;;;;5027626;28;20438;-75
2021/07/30 02:04:33;;;;;;;0.70;0.50;;;17.20;99.90;;;;;;5028158;28;20219;-75
2021/07/30 02:06:59;;;;;;;0.80;0.60;;;17.10;99.90;;;;;;5029774;28;20168;-75
2021/07/30 02:09:24;;;;;;;0.80;0.70;;;17.20;99.90;;;;;;5018440;28;20180;-75
2021/07/30 02:11:51;;;;;;;1.07;0.87;;;17.10;99.90;;;;;;5020539;28;20915;-75
2021/07/30 02:14:17;;;;;;;0.70;0.60;;;17.10;99.90;;;;;;5015387;28;20245;-75
2021/07/30 02:16:50;;;;;;;0.80;0.60;;;17.10;99.90;;;;;;5030000;28;20833;-75
2021/07/30 02:19:18;;;;;;;0.80;0.70;;;17.10;99.90;;;;;;5013211;28;20922;-75
2021/07/30 02:21:48;;;;;;;0.70;0.60;;;17.10;99.90;;;;;;5013342;28;20400;-75
2021/07/30 02:24:14;;;;;;;0.80;0.70;;;17.10;99.90;;;;;;5014691;28;20859;-74
2021/07/30 02:26:40;;;;;;;3.00;1.70;;;17.00;99.90;;;;;;5021556;28;20468;-74
2021/07/30 02:29:06;;;;;;;1.27;1.17;;;17.00;99.90;;;;;;5032551;28;20430;-74
2021/07/30 02:31:32;;;;;;;1.87;1.77;;;16.90;99.90;;;;;;5032738;28;20453;-74
2021/07/30 02:33:58;;;;;;;0.80;0.60;;;16.80;99.90;;;;;;5032798;28;20462;-74
2021/07/30 02:36:24;;;;;;;4.23;1.00;;;16.80;99.90;;;;;;5014037;28;20446;-74
2021/07/30 02:38:50;;;;;;;1.00;0.90;;;16.70;99.90;;;;;;5016823;28;20191;-75
2021/07/30 02:41:16;;;;;;;1.00;0.90;;;16.60;99.90;;;;;;5028365;28;20521;-75
2021/07/30 02:43:42;;;;;;;1.10;0.70;;;16.50;99.90;;;;;;5025725;28;20438;-75
2021/07/30 02:46:08;;;;;;;1.47;0.87;;;16.50;99.90;;;;;;5029591;28;20460;-74
2021/07/30 02:48:33;;;;;;;0.70;0.50;;;16.40;99.90;;;;;;5026869;28;20429;-75
2021/07/30 02:50:59;;;;;;;0.93;0.93;;;16.30;99.90;;;;;;5014872;28;20181;-75
2021/07/30 02:53:24;;;;;;;0.80;0.70;;;16.20;99.90;;;;;;5028990;28;20782;-75
2021/07/30 02:55:50;;;;;;;1.00;0.90;;;16.20;99.90;;;;;;5031997;28;20258;-74
2021/07/30 02:58:15;;;;;;;0.73;0.53;;;16.10;99.90;;;;;;5027489;28;20195;-74
2021/07/30 03:00:41;;;;;;;1.23;0.70;;;16.10;99.90;;;;;;5017587;28;20306;-75
2021/07/30 03:03:07;;;;;;;0.90;0.77;;;16.00;99.90;;;;;;5031649;28;20175;-75
2021/07/30 03:05:32;;;;;;;0.80;0.73;;;16.00;99.90;;;;;;5028661;28;20822;-75
2021/07/30 03:07:58;;;;;;;0.77;0.57;;;16.00;99.90;;;;;;5015121;28;20799;-74
2021/07/30 03:10:24;;;;;;;0.73;0.60;;;16.00;99.90;;;;;;5024811;28;20163;-74
2021/07/30 03:12:49;;;;;;;5.23;1.00;;;16.00;99.90;;;;;;5031024;28;20704;-75
2021/07/30 03:15:15;;;;;;;0.77;0.50;;;16.00;99.90;;;;;;5028850;28;20215;-75
2021/07/30 03:17:41;;;;;;;0.80;0.70;;;16.00;99.90;;;;;;5012610;28;20251;-73
2021/07/30 03:20:07;;;;;;;0.87;0.60;;;15.90;99.90;;;;;;5015730;28;20187;-74
2021/07/30 03:22:33;;;;;;;1.73;0.87;;;15.90;99.90;;;;;;5012325;28;20214;-75
2021/07/30 03:24:59;;;;;;;0.80;0.57;;;15.70;99.90;;;;;;5012219;28;20443;-75
2021/07/30 03:27:25;;;;;;;0.70;0.50;;;15.70;99.90;;;;;;4994681;28;20943;-75
2021/07/30 03:29:51;;;;;;;0.80;0.60;;;15.60;99.90;;;;;;5002589;28;20176;-75
2021/07/30 03:32:16;;;;;;;0.80;0.70;;;15.60;99.90;;;;;;5017457;28;21005;-74
2021/07/30 03:34:42;;;;;;;1.63;1.47;;;15.60;99.90;;;;;;5015767;28;20556;-74
2021/07/30 03:37:08;;;;;;;0.70;0.60;;;15.60;99.90;;;;;;5012004;28;20171;-76
2021/07/30 03:39:34;;;;;;;0.80;0.70;;;15.60;99.90;;;;;;5012234;28;20242;-75
2021/07/30 03:41:59;;;;;;;0.80;0.60;;;15.60;99.90;;;;;;5025488;28;20446;-75
2021/07/30 03:44:25;;;;;;;1.63;1.53;;;15.70;99.90;;;;;;5009824;28;20929;-76
2021/07/30 03:46:51;;;;;;;1.07;0.70;;;15.70;99.90;;;;;;5016413;28;20169;-76
2021/07/30 03:49:16;;;;;;;0.80;0.63;;;15.60;99.90;;;;;;5023017;28;20185;-76
2021/07/30 03:51:42;;;;;;;0.70;0.60;;;15.60;99.90;;;;;;5031872;28;20175;-76
2021/07/30 03:54:09;;;;;;;1.00;0.90;;;15.70;99.90;;;;;;5027315;28;20210;-76
2021/07/30 03:56:37;;;;;;;1.23;1.07;;;15.60;99.90;;;;;;5022035;28;20176;-75
2021/07/30 03:59:03;;;;;;;0.80;0.80;;;15.60;99.90;;;;;;5011132;28;20520;-75
2021/07/30 04:01:28;;;;;;;0.90;0.70;;;15.50;99.90;;;;;;5029419;28;20430;-75
2021/07/30 04:03:54;;;;;;;0.80;0.80;;;15.50;99.90;;;;;;5011989;28;20208;-75
2021/07/30 04:06:19;;;;;;;0.70;0.50;;;15.50;99.90;;;;;;5012319;28;20183;-75
2021/07/30 04:08:45;;;;;;;0.80;0.67;;;15.40;99.90;;;;;;5023427;28;20184;-76
2021/07/30 04:11:11;;;;;;;0.70;0.50;;;15.40;99.90;;;;;;5003712;28;20197;-76
2021/07/30 04:13:36;;;;;;;0.70;0.60;;;15.40;99.90;;;;;;5001436;28;20446;-76
2021/07/30 04:16:03;;;;;;;2.00;1.80;;;15.30;99.90;;;;;;5011067;28;20572;-76
2021/07/30 04:18:29;;;;;;;0.80;0.60;;;15.30;99.90;;;;;;5011602;28;20192;-75
2021/07/30 04:20:54;;;;;;;1.37;1.27;;;15.30;99.90;;;;;;5028422;28;20473;-75
2021/07/30 04:23:20;;;;;;;0.70;0.57;;;15.20;99.90;;;;;;5025166;28;20274;-75
2021/07/30 04:25:45;;;;;;;0.80;0.60;;;15.20;99.90;;;;;;5027050;28;20637;-76
2021/07/30 04:28:11;;;;;;;0.80;0.60;;;15.20;99.90;;;;;;5032220;28;20179;-76
2021/07/30 04:30:36;;;;;;;0.70;0.50;;;15.20;99.90;;;;;;5023620;28;20183;-76
2021/07/30 04:33:02;;;;;;;0.70;0.50;;;15.30;99.90;;;;;;5020760;28;20192;-75
2021/07/30 04:35:27;;;;;;;0.80;0.70;;;15.30;99.90;;;;;;5014726;28;20180;-76
2021/07/30 04:37:56;;;;;;;0.77;0.63;;;15.30;99.90;;;;;;5014799;28;20250;-76
2021/07/30 04:40:22;;;;;;;0.70;0.57;;;15.30;99.90;;;;;;5021372;28;20211;-75
2021/07/30 04:42:48;;;;;;;0.70;0.50;;;15.30;99.90;;;;;;5021210;28;20422;-76
2021/07/30 04:45:13;;;;;;;0.70;0.50;;;15.30;99.90;;;;;;5016494;28;20494;-76
2021/07/30 04:47:39;;;;;;;2.63;2.43;;;15.30;99.90;;;;;;5016245;28;20497;-76
2021/07/30 04:50:05;;;;;;;1.20;1.00;;;15.40;99.90;;;;;;5032251;28;20187;-76
2021/07/30 04:52:31;;;;;;;0.80;0.60;;;15.30;99.90;;;;;;5034630;28;20179;-76
2021/07/30 04:54:56;;;;;;;2.13;1.30;;;15.40;99.90;;;;;;5033010;28;20445;-75
2021/07/30 04:57:22;;;;;;;0.80;0.70;;;15.30;99.90;;;;;;5026061;28;21530;-76
2021/07/30 04:59:47;;;;;;;1.10;1.00;;;15.40;99.90;;;;;;5020644;28;20212;-75
2021/07/30 05:02:13;;;;;;;1.07;0.97;;;15.30;99.90;;;;;;5033270;28;20171;-76
2021/07/30 05:04:38;;;;;;;0.80;0.63;;;15.40;99.90;;;;;;5034185;28;20192;-75
2021/07/30 05:07:04;;;;;;;1.17;0.93;;;15.50;99.90;;;;;;5032841;28;20759;-76
2021/07/30 05:09:30;;;;;;;1.00;0.80;;;15.50;99.90;;;;;;5027021;28;20187;-76
2021/07/30 05:11:55;;;;;;;0.70;0.57;;;15.50;99.90;;;;;;5015012;28;20434;-76
2021/07/30 05:14:21;;;;;;;0.80;0.60;;;15.60;99.90;;;;;;5020421;28;20210;-76
2021/07/30 05:16:47;;;;;;;0.80;0.70;;;15.60;99.90;;;;;;5016955;28;20661;-76
2021/07/30 05:19:12;;;;;;;1.53;1.43;;;15.70;99.90;;;;;;5022456;28;20191;-75
2021/07/30 05:21:38;;;;;;;0.93;0.83;;;15.80;99.90;;;;;;5016813;28;20168;-76
2021/07/30 05:24:04;;;;;;;0.70;0.60;;;15.80;99.90;;;;;;4997719;28;20677;-75
2021/07/30 05:26:29;;;;;;;0.70;0.60;;;15.80;99.90;;;;;;5021867;28;20220;-76
2021/07/30 05:28:55;;;;;;;0.70;0.60;;;15.90;99.90;;;;;;5014282;28;20842;-75
2021/07/30 05:31:22;;;;;;;0.70;0.50;;;16.00;99.90;;;;;;5014861;28;20191;-76
2021/07/30 05:33:48;;;;;;;0.80;0.80;;;16.00;99.90;;;;;;5017111;28;20198;-76
2021/07/30 05:36:22;;;;;;;0.80;0.70;;;16.10;99.90;;;;;;5006800;28;20438;-75
2021/07/30 05:38:48;;;;;;;0.70;0.57;;;16.10;99.90;;;;;;5028069;28;20218;-77
2021/07/30 05:41:15;;;;;;;1.10;1.00;;;16.20;99.90;;;;;;5014565;28;20431;-76
2021/07/30 05:43:42;;;;;;;1.07;0.97;;;16.40;99.90;;;;;;5014277;28;20436;-76
2021/07/30 05:46:09;;;;;;;1.00;0.60;;;16.50;99.90;;;;;;5020095;28;20435;-76
2021/07/30 05:48:35;;;;;;;0.80;0.63;;;16.60;99.90;;;;;;5018105;28;20435;-77
2021/07/30 05:51:00;;;;;;;0.80;0.67;;;16.70;99.90;;;;;;5014469;28;20466;-76
2021/07/30 05:53:26;;;;;;;1.00;0.90;;;16.90;99.90;;;;;;5016855;28;20479;-76
2021/07/30 05:55:52;;;;;;;2.80;2.37;;;17.00;99.90;;;;;;5023036;28;20669;-75
2021/07/30 05:58:17;;;;;;;0.80;0.60;;;17.00;99.90;;;;;;5023324;28;20554;-76
2021/07/30 06:00:43;;;;;;;1.93;1.40;;;17.20;99.90;;;;;;5025592;28;20173;-76
2021/07/30 06:03:09;;;;;;;1.20;0.90;;;17.30;99.90;;;;;;5021235;28;20163;-75
2021/07/30 06:05:34;;;;;;;2.80;1.00;;;17.40;99.90;;;;;;5014876;28;20195;-75
2021/07/30 06:08:04;;;;;;;0.87;0.67;;;17.50;99.90;;;;;;5017103;28;20187;-75
2021/07/30 06:10:30;;;;;;;0.80;0.60;;;17.70;99.90;;;;;;5016832;28;20604;-76
2021/07/30 06:12:55;;;;;;;0.80;0.70;;;18.00;99.90;;;;;;5020451;28;20441;-75
2021/07/30 06:15:22;;;;;;;0.90;0.80;;;18.20;99.90;;;;;;5026520;28;20974;-76
2021/07/30 06:17:48;;;;;;;0.90;0.80;;;18.40;99.90;;;;;;5031881;28;20176;-76
2021/07/30 06:20:13;;;;;;;0.80;0.60;;;18.50;99.90;;;;;;5024644;28;20502;-76
2021/07/30 06:22:39;;;;;;;0.90;0.60;;;18.70;99.90;;;;;;5019576;28;20179;-76
2021/07/30 06:25:06;;;;;;;1.10;0.90;;;18.90;99.90;;;;;;5028880;28;20211;-76
2021/07/30 06:27:34;;;;;;;0.80;0.57;;;19.10;99.90;;;;;;5005958;28;20172;-76
2021/07/30 06:30:00;;;;;;;1.00;0.60;;;19.30;99.90;;;;;;5018432;28;20431;-74
2021/07/30 06:32:26;;;;;;;0.90;0.73;;;19.50;99.90;;;;;;5029282;28;20517;-76
2021/07/30 06:34:51;;;;;;;0.97;0.77;;;19.60;99.90;;;;;;5018765;28;20529;-77
2021/07/30 06:37:17;;;;;;;0.90;0.80;;;19.60;99.90;;;;;;5022841;28;20645;-75
2021/07/30 06:39:42;;;;;;;0.80;0.60;;;19.60;99.90;;;;;;5018657;28;20207;-77
2021/07/30 06:42:08;;;;;;;1.10;0.87;;;19.80;99.90;;;;;;5014789;28;20742;-76
2021/07/30 06:44:34;;;;;;;0.90;0.80;;;19.90;99.90;;;;;;5022122;28;20198;-76
2021/07/30 06:46:59;;;;;;;0.80;0.60;;;20.10;99.90;;;;;;5032700;28;20570;-75
2021/07/30 06:49:25;;;;;;;0.80;0.60;;;20.40;99.90;;;;;;5018341;28;20195;-77
2021/07/30 06:51:50;;;;;;;0.93;0.80;;;20.60;99.90;;;;;;5013502;28;20184;-78
2021/07/30 06:54:16;;;;;;;1.00;0.60;;;20.80;99.90;;;;;;5013037;28;20200;-76
2021/07/30 06:56:45;;;;;;;1.57;0.97;;;20.90;99.90;;;;;;5013188;28;20183;-76
2021/07/30 06:59:11;;;;;;;2.30;1.13;;;20.90;99.90;;;;;;5029580;28;20453;-76
2021/07/30 07:01:37;;;;;;;0.80;0.60;;;21.00;99.90;;;;;;5032547;28;20898;-77
2021/07/30 07:04:03;;;;;;;0.73;0.50;;;21.10;99.90;;;;;;5032787;28;20449;-77
2021/07/30 07:06:28;;;;;;;2.90;2.70;;;21.20;99.90;;;;;;5014023;28;20194;-77
2021/07/30 07:08:55;;;;;;;1.27;1.07;;;21.30;99.90;;;;;;5015977;28;20593;-76
2021/07/30 07:11:20;;;;;;;1.10;0.80;;;21.40;99.90;;;;;;5013911;28;20566;-77
2021/07/30 07:13:46;;;;;;;0.90;0.70;;;21.60;99.90;;;;;;5030289;28;20485;-75
2021/07/30 07:16:12;;;;;;;0.80;0.70;;;21.60;99.90;;;;;;5023154;28;20557;-77
2021/07/30 07:18:37;;;;;;;1.30;0.80;;;21.70;99.90;;;;;;5020511;28;20734;-78
2021/07/30 07:21:03;;;;;;;2.13;2.03;;;21.90;99.90;;;;;;5020695;28;20442;-73
2021/07/30 07:23:28;;;;;;;1.03;0.57;;;22.10;99.90;;;;;;5013745;28;20196;-76
2021/07/30 07:25:54;;;;;;;0.80;0.70;;;22.30;99.90;;;;;;5012414;28;20168;-76
2021/07/30 07:28:20;;;;;;;0.80;0.60;;;22.50;99.90;;;;;;5018554;28;20678;-76
2021/07/30 07:30:45;;;;;;;1.43;1.23;;;22.80;99.90;;;;;;5019801;28;20180;-76
2021/07/30 07:33:11;;;;;;;1.60;1.23;;;23.00;99.90;;;;;;5022839;28;20207;-76
2021/07/30 07:35:36;;;;;;;0.80;0.60;;;23.10;99.90;;;;;;5019148;28;20191;-75
2021/07/30 07:38:06;;;;;;;0.80;0.50;;;23.20;99.90;;;;;;5009796;28;20214;-77
2021/07/30 07:40:32;;;;;;;0.80;0.70;;;23.30;99.90;;;;;;5032321;28;20172;-77
2021/07/30 07:42:58;;;;;;;0.90;0.70;;;23.40;99.90;;;;;;5019369;28;20842;-76
2021/07/30 07:45:25;;;;;;;0.90;0.60;;;23.50;99.90;;;;;;5025854;28;20445;-76
2021/07/30 07:47:51;;;;;;;0.80;0.60;;;23.70;99.90;;;;;;5015524;28;20936;-76
2021/07/30 07:50:17;;;;;;;0.80;0.70;;;23.90;99.90;;;;;;5009564;28;20437;-75
2021/07/30 07:52:42;;;;;;;0.83;0.63;;;24.20;99.90;;;;;;5025899;28;20418;-76
2021/07/30 07:55:08;;;;;;;0.80;0.50;;;24.40;99.90;;;;;;5032228;28;20183;-77
2021/07/30 07:57:34;;;;;;;0.90;0.70;;;24.40;99.90;;;;;;5011680;28;20179;-77
2021/07/30 08:00:00;;;;;;;0.80;0.60;;;24.30;99.90;;;;;;5017127;28;20480;-76
2021/07/30 08:02:25;;;;;;;0.80;0.50;;;24.40;99.90;;;;;;5034070;28;20180;-76
2021/07/30 08:04:51;;;;;;;0.80;0.70;;;24.50;99.90;;;;;;5036971;28;20425;-76
2021/07/30 08:07:17;;;;;;;1.00;0.70;;;24.70;99.90;;;;;;5029910;28;20171;-77
2021/07/30 08:09:46;;;;;;;1.30;0.97;;;24.60;99.90;;;;;;5032508;28;20180;-77
2021/07/30 08:12:12;;;;;;;1.40;0.67;;;24.80;99.90;;;;;;5017552;28;20435;-77
2021/07/30 08:14:38;;;;;;;0.83;0.70;;;25.10;99.90;;;;;;5007747;28;20815;-75
2021/07/30 08:17:04;;;;;;;0.80;0.60;;;25.20;99.90;;;;;;5028886;28;20198;-76
2021/07/30 08:19:35;;;;;;;0.93;0.83;;;25.40;99.90;;;;;;5034496;28;20529;-77
2021/07/30 08:22:02;;;;;;;0.80;0.60;;;25.70;99.90;;;;;;5034816;28;20225;-78
2021/07/30 08:24:28;;;;;;;3.23;0.80;;;26.10;99.90;;;;;;5037455;28;20414;-77
2021/07/30 08:26:53;;;;;;;0.97;0.70;;;26.30;99.90;;;;;;5031598;28;20514;-77
2021/07/30 08:29:19;;;;;;;1.00;0.70;;;26.50;99.90;;;;;;5016739;28;20187;-77
2021/07/30 08:31:44;;;;;;;0.90;0.80;;;26.60;99.90;;;;;;5024887;28;20192;-77
2021/07/30 08:34:15;;;;;;;0.80;0.60;;;26.50;99.90;;;;;;5016419;28;20199;-77
2021/07/30 08:36:41;;;;;;;1.13;0.80;;;26.80;99.90;;;;;;5026925;28;20187;-76
2021/07/30 08:39:06;;;;;;;0.80;0.70;;;27.00;99.90;;;;;;5026349;28;20465;-77
2021/07/30 08:41:34;;;;;;;0.80;0.60;;;26.90;99.90;;;;;;5035076;28;20467;-76
2021/07/30 08:43:59;;;;;;;1.10;1.00;;;27.00;99.90;;;;;;5029579;28;20187;-77
2021/07/30 08:46:26;;;;;;;0.90;0.80;;;27.10;99.90;;;;;;5030385;28;20433;-76
2021/07/30 08:48:53;;;;;;;0.80;0.60;;;27.00;98.40;;;;;;5033729;28;20182;-78
2021/07/30 08:51:20;;;;;;;1.00;0.70;;;26.90;99.20;;;;;;5035420;28;20445;-77
2021/07/30 08:53:46;;;;;;;1.00;0.90;;;27.10;98.60;;;;;;5034821;28;20426;-78
2021/07/30 08:56:13;;;;;;;1.13;0.77;;;27.50;97.70;;;;;;5016557;28;20450;-75
2021/07/30 08:58:38;;;;;;;0.97;0.87;;;27.60;97.10;;;;;;5021715;28;20458;-75
2021/07/30 09:01:05;;;;;;;1.10;0.80;;;27.60;94.10;;;;;;5031308;28;20418;-75
2021/07/30 09:03:37;;;;;;;1.10;1.00;;;27.80;95.40;;;;;;5023119;28;20195;-76
2021/07/30 09:06:12;;;;;;;0.90;0.70;;;28.20;96.10;;;;;;5018915;28;20422;-75
2021/07/30 09:08:37;;;;;;;4.30;0.90;;;28.20;93.50;;;;;;5031622;28;20767;-74
2021/07/30 09:11:03;;;;;;;0.90;0.70;;;28.00;92.60;;;;;;5022706;28;20497;-74
2021/07/30 09:13:29;;;;;;;0.80;0.60;;;28.00;93.10;;;;;;5025718;28;20194;-76
2021/07/30 09:16:11;;;;;;;0.80;0.60;;;28.10;93.60;;;;;;5033701;28;20181;-75
2021/07/30 09:18:40;;;;;;;0.83;0.70;;;28.50;94.40;;;;;;5029157;28;20485;-75
2021/07/30 09:21:24;;;;;;;1.63;1.10;;;28.30;92.40;;;;;;5034200;28;20406;-73
2021/07/30 09:24:08;;;;;;;1.10;0.80;;;28.30;91.60;;;;;;5023993;28;20435;-76
2021/07/30 09:26:48;;;;;;;1.60;1.00;;;28.30;92.00;;;;;;5018270;28;20500;-74
2021/07/30 09:29:21;;;;;;;0.90;0.80;;;28.50;93.50;;;;;;5033971;28;20410;-75
2021/07/30 09:31:47;;;;;;;1.10;0.73;;;28.80;92.00;;;;;;5032450;28;20522;-76
2021/07/30 09:34:15;;;;;;;1.10;0.93;;;29.10;93.40;;;;;;5032297;28;20583;-75
2021/07/30 09:36:43;;;;;;;0.80;0.70;;;28.80;85.60;;;;;;5033145;28;20171;-75
2021/07/30 09:39:09;;;;;;;1.20;1.07;;;28.60;89.70;;;;;;5014810;28;20465;-74
2021/07/30 09:41:34;;;;;;;1.00;0.70;;;28.40;90.90;;;;;;5017367;28;20810;-76
2021/07/30 09:44:07;;;;;;;0.97;0.87;;;28.10;90.70;;;;;;5015015;28;20590;-76
2021/07/30 09:46:34;;;;;;;0.90;0.80;;;28.20;91.50;;;;;;5011192;28;20294;-75
2021/07/30 09:49:00;;;;;;;1.23;1.13;;;28.50;91.00;;;;;;5022059;28;20502;-76
2021/07/30 09:51:26;;;;;;;1.00;0.73;;;28.60;87.80;;;;;;5025521;28;20498;-75
2021/07/30 09:53:51;;;;;;;1.20;1.00;;;28.80;87.50;;;;;;5014169;28;20434;-75
2021/07/30 09:56:22;;;;;;;1.00;0.80;;;29.10;87.30;;;;;;5030953;28;20420;-76
2021/07/30 09:58:49;;;;;;;1.73;0.90;;;29.30;83.40;;;;;;5020045;28;20220;-75
2021/07/30 10:01:18;;;;;;;1.30;0.80;;;29.60;83.20;;;;;;5025380;28;20472;-74
2021/07/30 10:03:47;;;;;;;2.03;1.37;;;29.00;82.30;;;;;;5014350;28;21024;-74
2021/07/30 10:06:13;;;;;;;0.90;0.73;;;29.00;82.80;;;;;;5017576;28;20442;-74
2021/07/30 10:08:42;;;;;;;0.90;0.70;;;29.30;83.20;;;;;;5033247;28;20823;-74
2021/07/30 10:11:13;;;;;;;1.40;0.97;;;29.50;79.30;;;;;;5026861;28;20497;-74
2021/07/30 10:13:48;;;;;;;1.30;1.10;;;29.80;81.60;;;;;;5032380;28;20488;-75
2021/07/30 10:16:19;;;;;;;1.00;0.90;;;30.30;80.80;;;;;;4994005;28;20939;-75
2021/07/30 10:18:46;;;;;;;0.90;0.80;;;30.60;81.80;;;;;;5011019;28;20455;-74
2021/07/30 10:21:15;;;;;;;1.00;0.90;;;30.50;77.00;;;;;;5002948;28;20800;-74
2021/07/30 10:23:43;;;;;;;0.90;0.80;;;30.20;75.00;;;;;;4993812;28;20479;-74
2021/07/30 10:26:10;;;;;;;0.90;0.70;;;30.00;75.60;;;;;;5006324;28;20477;-74
2021/07/30 10:28:36;;;;;;;0.90;0.80;;;29.80;74.30;;;;;;5001229;28;20417;-75
2021/07/30 10:31:12;;;;;;;0.93;0.80;;;29.60;78.30;;;;;;4985169;28;20427;-74
2021/07/30 10:33:37;;;;;;;1.33;0.80;;;29.50;76.30;;;;;;5001424;28;20735;-74
2021/07/30 10:36:07;;;;;;;0.90;0.70;;;29.50;82.20;;;;;;4980374;28;20420;-74
2021/07/30 10:38:35;;;;;;;1.07;0.97;;;29.60;78.40;;;;;;5008739;28;20833;-74
2021/07/30 10:41:09;;;;;;;1.30;0.90;;;29.70;77.50;;;;;;5006176;28;20466;-74
2021/07/30 10:44:05;;;;;;;3.50;3.20;;;29.70;76.30;;;;;;5011029;28;20866;-74
2021/07/30 10:46:31;;;;;;;0.90;0.80;;;30.20;80.80;;;;;;4998257;28;20487;-75
2021/07/30 10:48:57;;;;;;;1.30;0.90;;;30.40;77.50;;;;;;5011968;28;21107;-74
2021/07/30 10:51:24;;;;;;;1.17;1.07;;;30.70;74.00;;;;;;5000590;28;20207;-74
2021/07/30 10:53:54;;;;;;;0.90;0.80;;;30.80;70.20;;;;;;5003708;28;20520;-74
2021/07/30 10:56:19;;;;;;;1.00;0.90;;;30.70;70.00;;;;;;4992650;28;20436;-74
2021/07/30 10:58:54;;;;;;;1.10;0.80;;;30.50;70.30;;;;;;4992660;28;20484;-74
2021/07/30 11:01:22;;;;;;;0.90;0.80;;;30.70;69.00;;;;;;5004309;28;20523;-74
2021/07/30 11:03:51;;;;;;;1.00;0.90;;;31.20;72.90;;;;;;5012482;28;20435;-75
2021/07/30 11:06:30;;;;;;;1.07;0.97;;;31.60;68.80;;;;;;5011856;28;20418;-75
2021/07/30 11:08:58;;;;;;;1.30;0.90;;;31.90;70.90;;;;;;4994674;28;20431;-74
2021/07/30 11:12:07;;;;;;;0.93;0.83;;;32.00;64.00;;;;;;5003665;28;20430;-75
2021/07/30 11:14:37;;;;;;;1.20;1.10;;;31.70;64.20;;;;;;4994520;28;20457;-74
2021/07/30 11:17:08;;;;;;;1.30;1.00;;;31.80;61.60;;;;;;5030964;28;20433;-74
2021/07/30 11:19:38;;;;;;;1.00;0.70;;;31.80;62.00;;;;;;5024459;28;20545;-74
2021/07/30 11:22:08;;;;;;;1.20;1.10;;;32.00;65.60;;;;;;5015179;28;20420;-75
2021/07/30 11:24:39;;;;;;;1.30;0.90;;;31.90;60.60;;;;;;5015535;28;20951;-74
2021/07/30 11:27:05;;;;;;;1.60;1.50;;;31.50;64.60;;;;;;5028485;28;20775;-74
2021/07/30 11:29:31;;;;;;;1.20;0.80;;;30.90;63.90;;;;;;5013716;28;20752;-73
2021/07/30 11:31:58;;;;;;;1.30;1.20;;;30.30;63.70;;;;;;5029723;28;20433;-75
2021/07/30 11:34:28;;;;;;;0.90;0.80;;;30.30;66.20;;;;;;5030787;28;20740;-75
2021/07/30 11:36:54;;;;;;;1.13;0.77;;;30.50;64.80;;;;;;5031371;28;20418;-74
2021/07/30 11:39:19;;;;;;;1.13;0.80;;;30.50;66.20;;;;;;5029333;28;20572;-74
2021/07/30 11:41:49;;;;;;;2.23;1.07;;;30.80;67.70;;;;;;5023706;28;20289;-74
2021/07/30 11:44:16;;;;;;;1.00;0.70;;;30.90;64.60;;;;;;5013591;28;20194;-74
2021/07/30 11:46:50;;;;;;;1.10;0.80;;;30.90;66.30;;;;;;5016694;28;20410;-74
2021/07/30 11:49:16;;;;;;;0.83;0.60;;;31.00;64.20;;;;;;5013435;28;20427;-74
2021/07/30 11:51:41;;;;;;;0.87;0.73;;;31.00;64.80;;;;;;5014025;28;20422;-74
2021/07/30 11:54:07;;;;;;;0.87;0.70;;;30.60;66.40;;;;;;5011837;28;20327;-74
2021/07/30 11:56:51;;;;;;;0.90;0.80;;;30.50;68.60;;;;;;5018809;28;20168;-74
2021/07/30 11:59:16;;;;;;;1.00;0.90;;;30.40;70.00;;;;;;5004710;28;20679;-74
2021/07/30 12:01:57;;;;;;;1.30;0.90;;;30.50;64.60;;;;;;5017674;28;20494;-74
2021/07/30 12:04:23;;;;;;;0.90;0.70;;;30.40;65.20;;;;;;5021056;28;20198;-74
2021/07/30 12:06:51;;;;;;;1.00;0.90;;;30.60;65.30;;;;;;5029497;28;20414;-74
2021/07/30 12:09:18;;;;;;;1.00;0.87;;;30.10;62.40;;;;;;5031209;28;20180;-75
2021/07/30 12:11:56;;;;;;;1.07;0.90;;;30.20;66.40;;;;;;5016028;28;20410;-74
2021/07/30 12:14:25;;;;;;;0.90;0.80;;;30.20;65.30;;;;;;5011762;28;20450;-74
2021/07/30 12:16:51;;;;;;;1.77;1.07;;;30.40;68.00;;;;;;5012572;28;20515;-74
2021/07/30 12:19:35;;;;;;;11.03;2.10;;;30.50;67.50;;;;;;5019786;28;20478;-74
2021/07/30 12:22:06;;;;;;;1.50;1.40;;;30.40;67.70;;;;;;5021639;28;20423;-75
2021/07/30 12:24:33;;;;;;;1.53;1.43;;;30.60;68.20;;;;;;5017895;28;20495;-75
2021/07/30 12:27:16;;;;;;;1.10;1.00;;;30.60;65.40;;;;;;5031009;28;20422;-75
2021/07/30 12:29:43;;;;;;;1.30;0.90;;;30.60;65.50;;;;;;5031565;28;20413;-74
2021/07/30 12:32:10;;;;;;;1.13;1.03;;;30.70;63.70;;;;;;5020909;28;20423;-75
2021/07/30 12:34:35;;;;;;;0.97;0.87;;;30.90;66.70;;;;;;5022461;28;20994;-74
2021/07/30 12:37:09;;;;;;;0.93;0.83;;;31.00;66.80;;;;;;5017779;28;20431;-75
2021/07/30 12:39:46;;;;;;;1.13;1.00;;;31.00;64.00;;;;;;5013822;28;20195;-76
2021/07/30 12:42:22;;;;;;;0.90;0.80;;;30.70;63.10;;;;;;5030313;28;20457;-74
2021/07/30 12:45:06;;;;;;;0.80;0.67;;;30.70;65.70;;;;;;5018143;28;20848;-75
2021/07/30 12:47:34;;;;;;;1.03;0.93;;;30.90;63.20;;;;;;5016326;28;20423;-74